sensor_id;sensor_type;location;lat;lon;timestamp;P1;durP1;ratioP1;P2;durP2;ratioP2
9372;SDS011;10838;52.350;9.790;2024-01-27T00:00:21;12.03;;;2.90;;
9372;SDS011;10838;52.350;9.790;2024-01-27T00:02:47;22.30;;;3.33;;
9372;SDS011;10838;52.350;9.790;2024-01-27T00:05:15;20.33;;;3.50;;
9372;SDS011;10838;52.350;9.790;2024-01-27T00:07:42;24.57;;;3.13;;
9372;SDS011;10838;52.350;9.790;2024-01-27T00:10:09;13.63;;;3.10;;
9372;SDS011;10838;52.350;9.790;2024-01-27T00:12:36;17.57;;;3.60;;
9372;SDS011;10838;52.350;9.790;2024-01-27T00:15:02;17.00;;;3.03;;
9372;SDS011;10838;52.350;9.790;2024-01-27T00:17:29;21.50;;;5.20;;
9372;SDS011;10838;52.350;9.790;2024-01-27T00:19:56;21.00;;;3.47;;
9372;SDS011;10838;52.350;9.790;2024-01-27T00:22:24;23.13;;;3.70;;
9372;SDS011;10838;52.350;9.790;2024-01-27T00:24:50;20.90;;;3.93;;
9372;SDS011;10838;52.350;9.790;2024-01-27T00:27:17;17.43;;;3.77;;
9372;SDS011;10838;52.350;9.790;2024-01-27T00:29:43;23.57;;;5.03;;
9372;SDS011;10838;52.350;9.790;2024-01-27T00:32:10;24.17;;;3.33;;
9372;SDS011;10838;52.350;9.790;2024-01-27T00:34:37;14.60;;;2.80;;
9372;SDS011;10838;52.350;9.790;2024-01-27T00:37:03;15.70;;;3.27;;
9372;SDS011;10838;52.350;9.790;2024-01-27T00:39:32;15.57;;;3.13;;
9372;SDS011;10838;52.350;9.790;2024-01-27T00:41:58;20.97;;;3.70;;
9372;SDS011;10838;52.350;9.790;2024-01-27T00:44:25;21.33;;;3.17;;
9372;SDS011;10838;52.350;9.790;2024-01-27T00:46:51;17.87;;;3.20;;
9372;SDS011;10838;52.350;9.790;2024-01-27T00:49:18;13.10;;;2.70;;
9372;SDS011;10838;52.350;9.790;2024-01-27T00:51:45;21.10;;;3.63;;
9372;SDS011;10838;52.350;9.790;2024-01-27T00:54:11;18.63;;;3.70;;
9372;SDS011;10838;52.350;9.790;2024-01-27T00:56:39;25.73;;;2.97;;
9372;SDS011;10838;52.350;9.790;2024-01-27T00:59:06;19.67;;;3.43;;
9372;SDS011;10838;52.350;9.790;2024-01-27T01:01:32;19.57;;;3.10;;
9372;SDS011;10838;52.350;9.790;2024-01-27T01:03:59;16.87;;;3.53;;
9372;SDS011;10838;52.350;9.790;2024-01-27T01:06:25;17.10;;;3.83;;
9372;SDS011;10838;52.350;9.790;2024-01-27T01:08:52;18.63;;;3.33;;
9372;SDS011;10838;52.350;9.790;2024-01-27T01:11:18;17.37;;;3.27;;
9372;SDS011;10838;52.350;9.790;2024-01-27T01:13:46;22.37;;;3.47;;
9372;SDS011;10838;52.350;9.790;2024-01-27T01:16:13;25.33;;;3.87;;
9372;SDS011;10838;52.350;9.790;2024-01-27T01:18:39;20.07;;;3.60;;
9372;SDS011;10838;52.350;9.790;2024-01-27T01:21:06;20.17;;;4.23;;
9372;SDS011;10838;52.350;9.790;2024-01-27T01:23:32;20.10;;;3.33;;
9372;SDS011;10838;52.350;9.790;2024-01-27T01:25:59;21.73;;;4.00;;
9372;SDS011;10838;52.350;9.790;2024-01-27T01:28:25;17.03;;;3.47;;
9372;SDS011;10838;52.350;9.790;2024-01-27T01:30:54;17.00;;;3.17;;
9372;SDS011;10838;52.350;9.790;2024-01-27T01:33:21;17.60;;;3.73;;
9372;SDS011;10838;52.350;9.790;2024-01-27T01:35:47;20.03;;;4.03;;
9372;SDS011;10838;52.350;9.790;2024-01-27T01:38:14;23.03;;;3.70;;
9372;SDS011;10838;52.350;9.790;2024-01-27T01:40:40;21.23;;;3.67;;
9372;SDS011;10838;52.350;9.790;2024-01-27T01:43:09;19.90;;;4.47;;
9372;SDS011;10838;52.350;9.790;2024-01-27T01:45:36;21.43;;;4.27;;
9372;SDS011;10838;52.350;9.790;2024-01-27T01:48:05;20.40;;;3.33;;
9372;SDS011;10838;52.350;9.790;2024-01-27T01:50:33;27.10;;;4.40;;
9372;SDS011;10838;52.350;9.790;2024-01-27T01:52:59;15.80;;;3.40;;
9372;SDS011;10838;52.350;9.790;2024-01-27T01:55:27;21.97;;;3.57;;
9372;SDS011;10838;52.350;9.790;2024-01-27T01:57:53;22.13;;;3.53;;
9372;SDS011;10838;52.350;9.790;2024-01-27T02:00:20;26.23;;;3.27;;
9372;SDS011;10838;52.350;9.790;2024-01-27T02:02:47;25.97;;;3.90;;
9372;SDS011;10838;52.350;9.790;2024-01-27T02:05:15;15.80;;;3.97;;
9372;SDS011;10838;52.350;9.790;2024-01-27T02:07:42;22.67;;;3.70;;
9372;SDS011;10838;52.350;9.790;2024-01-27T02:10:12;18.60;;;3.67;;
9372;SDS011;10838;52.350;9.790;2024-01-27T02:12:39;28.87;;;4.20;;
9372;SDS011;10838;52.350;9.790;2024-01-27T02:15:09;15.90;;;3.50;;
9372;SDS011;10838;52.350;9.790;2024-01-27T02:17:36;15.83;;;3.10;;
9372;SDS011;10838;52.350;9.790;2024-01-27T02:20:03;19.10;;;3.33;;
9372;SDS011;10838;52.350;9.790;2024-01-27T02:22:32;21.37;;;3.57;;
9372;SDS011;10838;52.350;9.790;2024-01-27T02:25:00;25.23;;;3.87;;
9372;SDS011;10838;52.350;9.790;2024-01-27T02:27:27;19.37;;;3.70;;
9372;SDS011;10838;52.350;9.790;2024-01-27T02:29:54;22.47;;;3.47;;
9372;SDS011;10838;52.350;9.790;2024-01-27T02:32:20;18.83;;;3.63;;
9372;SDS011;10838;52.350;9.790;2024-01-27T02:34:47;17.27;;;3.27;;
9372;SDS011;10838;52.350;9.790;2024-01-27T02:37:13;21.30;;;4.00;;
9372;SDS011;10838;52.350;9.790;2024-01-27T02:39:40;18.50;;;3.87;;
9372;SDS011;10838;52.350;9.790;2024-01-27T02:42:08;18.67;;;3.17;;
9372;SDS011;10838;52.350;9.790;2024-01-27T02:44:34;16.90;;;3.53;;
9372;SDS011;10838;52.350;9.790;2024-01-27T02:47:01;23.90;;;4.03;;
9372;SDS011;10838;52.350;9.790;2024-01-27T02:49:28;19.43;;;3.03;;
9372;SDS011;10838;52.350;9.790;2024-01-27T02:51:54;22.80;;;3.80;;
9372;SDS011;10838;52.350;9.790;2024-01-27T02:54:21;19.17;;;3.30;;
9372;SDS011;10838;52.350;9.790;2024-01-27T02:56:47;27.43;;;3.57;;
9372;SDS011;10838;52.350;9.790;2024-01-27T02:59:15;18.00;;;3.53;;
9372;SDS011;10838;52.350;9.790;2024-01-27T03:01:41;13.97;;;3.17;;
9372;SDS011;10838;52.350;9.790;2024-01-27T03:04:08;22.63;;;3.87;;
9372;SDS011;10838;52.350;9.790;2024-01-27T03:06:35;16.47;;;3.43;;
9372;SDS011;10838;52.350;9.790;2024-01-27T03:09:01;18.10;;;3.17;;
9372;SDS011;10838;52.350;9.790;2024-01-27T03:11:28;22.63;;;3.43;;
9372;SDS011;10838;52.350;9.790;2024-01-27T03:13:55;19.87;;;3.07;;
9372;SDS011;10838;52.350;9.790;2024-01-27T03:16:22;21.03;;;3.10;;
9372;SDS011;10838;52.350;9.790;2024-01-27T03:18:49;23.83;;;4.17;;
9372;SDS011;10838;52.350;9.790;2024-01-27T03:21:15;16.37;;;3.43;;
9372;SDS011;10838;52.350;9.790;2024-01-27T03:23:42;21.53;;;3.33;;
9372;SDS011;10838;52.350;9.790;2024-01-27T03:26:08;20.07;;;3.47;;
9372;SDS011;10838;52.350;9.790;2024-01-27T03:28:35;12.90;;;3.67;;
9372;SDS011;10838;52.350;9.790;2024-01-27T03:31:02;24.60;;;3.87;;
9372;SDS011;10838;52.350;9.790;2024-01-27T03:33:30;23.47;;;3.77;;
9372;SDS011;10838;52.350;9.790;2024-01-27T03:35:56;22.07;;;3.97;;
9372;SDS011;10838;52.350;9.790;2024-01-27T03:38:23;23.03;;;3.77;;
9372;SDS011;10838;52.350;9.790;2024-01-27T03:40:49;20.17;;;3.40;;
9372;SDS011;10838;52.350;9.790;2024-01-27T03:43:16;17.03;;;4.00;;
9372;SDS011;10838;52.350;9.790;2024-01-27T03:45:42;20.40;;;3.80;;
9372;SDS011;10838;52.350;9.790;2024-01-27T03:48:10;27.83;;;3.40;;
9372;SDS011;10838;52.350;9.790;2024-01-27T03:50:38;23.33;;;3.50;;
9372;SDS011;10838;52.350;9.790;2024-01-27T03:53:04;21.07;;;3.47;;
9372;SDS011;10838;52.350;9.790;2024-01-27T03:55:31;22.83;;;3.60;;
9372;SDS011;10838;52.350;9.790;2024-01-27T03:57:59;21.83;;;3.97;;
9372;SDS011;10838;52.350;9.790;2024-01-27T04:00:25;26.67;;;4.17;;
9372;SDS011;10838;52.350;9.790;2024-01-27T04:02:54;23.93;;;3.50;;
9372;SDS011;10838;52.350;9.790;2024-01-27T04:05:21;20.27;;;3.80;;
9372;SDS011;10838;52.350;9.790;2024-01-27T04:07:49;18.83;;;3.13;;
9372;SDS011;10838;52.350;9.790;2024-01-27T04:10:16;15.00;;;3.40;;
9372;SDS011;10838;52.350;9.790;2024-01-27T04:12:42;19.93;;;3.47;;
9372;SDS011;10838;52.350;9.790;2024-01-27T04:15:09;21.90;;;3.50;;
9372;SDS011;10838;52.350;9.790;2024-01-27T04:17:36;20.90;;;4.10;;
9372;SDS011;10838;52.350;9.790;2024-01-27T04:20:03;18.77;;;3.60;;
9372;SDS011;10838;52.350;9.790;2024-01-27T04:22:30;25.03;;;3.83;;
9372;SDS011;10838;52.350;9.790;2024-01-27T04:24:58;19.37;;;3.20;;
9372;SDS011;10838;52.350;9.790;2024-01-27T04:27:26;16.23;;;3.93;;
9372;SDS011;10838;52.350;9.790;2024-01-27T04:29:53;18.97;;;3.57;;
9372;SDS011;10838;52.350;9.790;2024-01-27T04:32:20;22.07;;;3.83;;
9372;SDS011;10838;52.350;9.790;2024-01-27T04:34:47;18.97;;;3.10;;
9372;SDS011;10838;52.350;9.790;2024-01-27T04:37:14;27.53;;;3.67;;
9372;SDS011;10838;52.350;9.790;2024-01-27T04:39:40;18.93;;;3.43;;
9372;SDS011;10838;52.350;9.790;2024-01-27T04:42:08;12.80;;;2.97;;
9372;SDS011;10838;52.350;9.790;2024-01-27T04:44:35;20.03;;;3.50;;
9372;SDS011;10838;52.350;9.790;2024-01-27T04:47:01;32.20;;;3.83;;
9372;SDS011;10838;52.350;9.790;2024-01-27T04:49:28;15.60;;;3.70;;
9372;SDS011;10838;52.350;9.790;2024-01-27T04:51:54;20.57;;;3.60;;
9372;SDS011;10838;52.350;9.790;2024-01-27T04:54:21;20.47;;;3.13;;
9372;SDS011;10838;52.350;9.790;2024-01-27T04:56:48;17.87;;;3.40;;
9372;SDS011;10838;52.350;9.790;2024-01-27T04:59:15;18.93;;;3.60;;
9372;SDS011;10838;52.350;9.790;2024-01-27T05:01:43;14.53;;;3.13;;
9372;SDS011;10838;52.350;9.790;2024-01-27T05:04:10;22.00;;;3.93;;
9372;SDS011;10838;52.350;9.790;2024-01-27T05:06:36;22.20;;;4.20;;
9372;SDS011;10838;52.350;9.790;2024-01-27T05:09:04;16.73;;;3.27;;
9372;SDS011;10838;52.350;9.790;2024-01-27T05:11:31;19.70;;;3.90;;
9372;SDS011;10838;52.350;9.790;2024-01-27T05:13:58;21.27;;;3.63;;
9372;SDS011;10838;52.350;9.790;2024-01-27T05:16:27;12.83;;;3.30;;
9372;SDS011;10838;52.350;9.790;2024-01-27T05:18:54;19.60;;;3.37;;
9372;SDS011;10838;52.350;9.790;2024-01-27T05:21:21;13.80;;;3.50;;
9372;SDS011;10838;52.350;9.790;2024-01-27T05:23:47;14.03;;;3.37;;
9372;SDS011;10838;52.350;9.790;2024-01-27T05:26:14;19.77;;;3.57;;
9372;SDS011;10838;52.350;9.790;2024-01-27T05:28:40;18.93;;;3.33;;
9372;SDS011;10838;52.350;9.790;2024-01-27T05:31:07;15.70;;;3.70;;
9372;SDS011;10838;52.350;9.790;2024-01-27T05:33:35;17.53;;;3.63;;
9372;SDS011;10838;52.350;9.790;2024-01-27T05:36:01;18.80;;;3.20;;
9372;SDS011;10838;52.350;9.790;2024-01-27T05:38:28;15.27;;;3.23;;
9372;SDS011;10838;52.350;9.790;2024-01-27T05:40:56;14.33;;;2.97;;
9372;SDS011;10838;52.350;9.790;2024-01-27T05:43:23;18.63;;;3.40;;
9372;SDS011;10838;52.350;9.790;2024-01-27T05:45:50;24.83;;;2.87;;
9372;SDS011;10838;52.350;9.790;2024-01-27T05:48:16;16.03;;;3.20;;
9372;SDS011;10838;52.350;9.790;2024-01-27T05:50:54;19.97;;;2.93;;
9372;SDS011;10838;52.350;9.790;2024-01-27T05:53:21;17.80;;;3.10;;
9372;SDS011;10838;52.350;9.790;2024-01-27T05:55:48;16.47;;;3.10;;
9372;SDS011;10838;52.350;9.790;2024-01-27T05:58:14;16.17;;;3.07;;
9372;SDS011;10838;52.350;9.790;2024-01-27T06:00:42;14.53;;;2.90;;
9372;SDS011;10838;52.350;9.790;2024-01-27T06:03:09;16.57;;;3.20;;
9372;SDS011;10838;52.350;9.790;2024-01-27T06:05:35;22.67;;;3.50;;
9372;SDS011;10838;52.350;9.790;2024-01-27T06:08:04;16.93;;;3.20;;
9372;SDS011;10838;52.350;9.790;2024-01-27T06:10:32;21.43;;;3.40;;
9372;SDS011;10838;52.350;9.790;2024-01-27T06:12:58;14.53;;;3.77;;
9372;SDS011;10838;52.350;9.790;2024-01-27T06:15:25;15.93;;;2.47;;
9372;SDS011;10838;52.350;9.790;2024-01-27T06:17:51;12.40;;;2.50;;
9372;SDS011;10838;52.350;9.790;2024-01-27T06:20:18;14.80;;;2.30;;
9372;SDS011;10838;52.350;9.790;2024-01-27T06:22:44;15.00;;;3.03;;
9372;SDS011;10838;52.350;9.790;2024-01-27T06:25:12;20.33;;;2.80;;
9372;SDS011;10838;52.350;9.790;2024-01-27T06:27:39;13.40;;;2.97;;
9372;SDS011;10838;52.350;9.790;2024-01-27T06:30:07;14.70;;;2.97;;
9372;SDS011;10838;52.350;9.790;2024-01-27T06:32:34;17.03;;;3.10;;
9372;SDS011;10838;52.350;9.790;2024-01-27T06:35:01;13.13;;;2.73;;
9372;SDS011;10838;52.350;9.790;2024-01-27T06:37:28;14.23;;;2.77;;
9372;SDS011;10838;52.350;9.790;2024-01-27T06:39:55;18.10;;;3.70;;
9372;SDS011;10838;52.350;9.790;2024-01-27T06:42:23;17.60;;;3.03;;
9372;SDS011;10838;52.350;9.790;2024-01-27T06:44:49;16.43;;;3.03;;
9372;SDS011;10838;52.350;9.790;2024-01-27T06:47:16;16.03;;;3.23;;
9372;SDS011;10838;52.350;9.790;2024-01-27T06:49:42;16.20;;;3.23;;
9372;SDS011;10838;52.350;9.790;2024-01-27T06:52:09;12.17;;;2.90;;
9372;SDS011;10838;52.350;9.790;2024-01-27T06:54:37;18.73;;;3.30;;
9372;SDS011;10838;52.350;9.790;2024-01-27T06:57:06;13.20;;;3.30;;
9372;SDS011;10838;52.350;9.790;2024-01-27T06:59:34;31.50;;;8.40;;
9372;SDS011;10838;52.350;9.790;2024-01-27T07:02:00;28.70;;;15.50;;
9372;SDS011;10838;52.350;9.790;2024-01-27T07:04:27;35.87;;;16.10;;
9372;SDS011;10838;52.350;9.790;2024-01-27T07:06:53;25.53;;;11.10;;
9372;SDS011;10838;52.350;9.790;2024-01-27T07:09:20;18.73;;;6.30;;
9372;SDS011;10838;52.350;9.790;2024-01-27T07:11:46;13.13;;;3.27;;
9372;SDS011;10838;52.350;9.790;2024-01-27T07:14:13;15.00;;;3.80;;
9372;SDS011;10838;52.350;9.790;2024-01-27T07:16:41;13.53;;;3.20;;
9372;SDS011;10838;52.350;9.790;2024-01-27T07:19:08;14.83;;;3.97;;
9372;SDS011;10838;52.350;9.790;2024-01-27T07:21:36;14.20;;;2.80;;
9372;SDS011;10838;52.350;9.790;2024-01-27T07:24:03;18.93;;;3.40;;
9372;SDS011;10838;52.350;9.790;2024-01-27T07:26:30;15.10;;;4.10;;
9372;SDS011;10838;52.350;9.790;2024-01-27T07:28:57;20.90;;;4.83;;
9372;SDS011;10838;52.350;9.790;2024-01-27T07:31:23;13.60;;;3.83;;
9372;SDS011;10838;52.350;9.790;2024-01-27T07:33:52;14.03;;;3.67;;
9372;SDS011;10838;52.350;9.790;2024-01-27T07:36:19;13.00;;;3.23;;
9372;SDS011;10838;52.350;9.790;2024-01-27T07:38:46;14.17;;;3.70;;
9372;SDS011;10838;52.350;9.790;2024-01-27T07:41:12;13.77;;;3.50;;
9372;SDS011;10838;52.350;9.790;2024-01-27T07:43:39;22.20;;;4.53;;
9372;SDS011;10838;52.350;9.790;2024-01-27T07:46:05;13.47;;;4.20;;
9372;SDS011;10838;52.350;9.790;2024-01-27T07:48:32;19.37;;;4.43;;
9372;SDS011;10838;52.350;9.790;2024-01-27T07:51:00;13.63;;;4.87;;
9372;SDS011;10838;52.350;9.790;2024-01-27T07:53:27;18.07;;;4.83;;
9372;SDS011;10838;52.350;9.790;2024-01-27T07:55:53;14.03;;;4.17;;
9372;SDS011;10838;52.350;9.790;2024-01-27T07:58:21;21.80;;;4.33;;
9372;SDS011;10838;52.350;9.790;2024-01-27T08:00:47;13.20;;;3.83;;
9372;SDS011;10838;52.350;9.790;2024-01-27T08:03:14;13.47;;;4.17;;
9372;SDS011;10838;52.350;9.790;2024-01-27T08:05:41;19.47;;;8.00;;
9372;SDS011;10838;52.350;9.790;2024-01-27T08:08:09;27.27;;;10.40;;
9372;SDS011;10838;52.350;9.790;2024-01-27T08:10:35;22.90;;;7.80;;
9372;SDS011;10838;52.350;9.790;2024-01-27T08:13:03;17.13;;;6.10;;
9372;SDS011;10838;52.350;9.790;2024-01-27T08:15:29;18.80;;;4.50;;
9372;SDS011;10838;52.350;9.790;2024-01-27T08:17:56;14.13;;;4.33;;
9372;SDS011;10838;52.350;9.790;2024-01-27T08:20:22;11.20;;;3.53;;
9372;SDS011;10838;52.350;9.790;2024-01-27T08:22:49;19.73;;;4.10;;
9372;SDS011;10838;52.350;9.790;2024-01-27T08:25:18;13.00;;;3.73;;
9372;SDS011;10838;52.350;9.790;2024-01-27T08:27:44;13.73;;;3.47;;
9372;SDS011;10838;52.350;9.790;2024-01-27T08:30:11;14.23;;;3.57;;
9372;SDS011;10838;52.350;9.790;2024-01-27T08:32:38;16.53;;;4.07;;
9372;SDS011;10838;52.350;9.790;2024-01-27T08:35:05;12.37;;;3.90;;
9372;SDS011;10838;52.350;9.790;2024-01-27T08:37:32;11.53;;;3.57;;
9372;SDS011;10838;52.350;9.790;2024-01-27T08:40:04;19.17;;;4.73;;
9372;SDS011;10838;52.350;9.790;2024-01-27T08:42:34;15.60;;;4.17;;
9372;SDS011;10838;52.350;9.790;2024-01-27T08:45:01;15.50;;;4.30;;
9372;SDS011;10838;52.350;9.790;2024-01-27T08:47:28;19.50;;;4.50;;
9372;SDS011;10838;52.350;9.790;2024-01-27T08:49:54;18.93;;;4.90;;
9372;SDS011;10838;52.350;9.790;2024-01-27T08:52:21;12.87;;;3.83;;
9372;SDS011;10838;52.350;9.790;2024-01-27T08:54:47;13.17;;;4.13;;
9372;SDS011;10838;52.350;9.790;2024-01-27T08:57:14;19.73;;;4.43;;
9372;SDS011;10838;52.350;9.790;2024-01-27T08:59:42;14.43;;;4.73;;
9372;SDS011;10838;52.350;9.790;2024-01-27T09:02:08;18.30;;;4.43;;
9372;SDS011;10838;52.350;9.790;2024-01-27T09:04:35;18.20;;;4.57;;
9372;SDS011;10838;52.350;9.790;2024-01-27T09:07:01;22.43;;;4.77;;
9372;SDS011;10838;52.350;9.790;2024-01-27T09:09:28;13.10;;;4.50;;
9372;SDS011;10838;52.350;9.790;2024-01-27T09:11:54;20.90;;;5.67;;
9372;SDS011;10838;52.350;9.790;2024-01-27T09:14:20;22.03;;;6.17;;
9372;SDS011;10838;52.350;9.790;2024-01-27T09:16:48;19.37;;;5.57;;
9372;SDS011;10838;52.350;9.790;2024-01-27T09:19:17;23.80;;;5.30;;
9372;SDS011;10838;52.350;9.790;2024-01-27T09:21:43;19.87;;;5.93;;
9372;SDS011;10838;52.350;9.790;2024-01-27T09:24:10;18.93;;;5.67;;
9372;SDS011;10838;52.350;9.790;2024-01-27T09:26:36;14.67;;;4.83;;
9372;SDS011;10838;52.350;9.790;2024-01-27T09:29:03;23.00;;;5.87;;
9372;SDS011;10838;52.350;9.790;2024-01-27T09:31:29;16.87;;;5.13;;
9372;SDS011;10838;52.350;9.790;2024-01-27T09:33:57;19.27;;;5.13;;
9372;SDS011;10838;52.350;9.790;2024-01-27T09:36:24;16.23;;;5.50;;
9372;SDS011;10838;52.350;9.790;2024-01-27T09:38:51;17.13;;;5.57;;
9372;SDS011;10838;52.350;9.790;2024-01-27T09:41:18;18.47;;;6.00;;
9372;SDS011;10838;52.350;9.790;2024-01-27T09:43:45;14.67;;;5.10;;
9372;SDS011;10838;52.350;9.790;2024-01-27T09:46:13;17.00;;;5.10;;
9372;SDS011;10838;52.350;9.790;2024-01-27T09:48:40;17.43;;;5.07;;
9372;SDS011;10838;52.350;9.790;2024-01-27T09:51:09;22.73;;;5.20;;
9372;SDS011;10838;52.350;9.790;2024-01-27T09:53:36;22.67;;;5.20;;
9372;SDS011;10838;52.350;9.790;2024-01-27T09:56:03;25.47;;;5.97;;
9372;SDS011;10838;52.350;9.790;2024-01-27T09:58:30;18.43;;;6.10;;
9372;SDS011;10838;52.350;9.790;2024-01-27T10:00:58;16.63;;;5.53;;
9372;SDS011;10838;52.350;9.790;2024-01-27T10:03:26;18.37;;;5.43;;
9372;SDS011;10838;52.350;9.790;2024-01-27T10:05:55;16.90;;;5.40;;
9372;SDS011;10838;52.350;9.790;2024-01-27T10:08:24;14.57;;;5.67;;
9372;SDS011;10838;52.350;9.790;2024-01-27T10:10:52;15.27;;;5.17;;
9372;SDS011;10838;52.350;9.790;2024-01-27T10:13:20;19.70;;;5.43;;
9372;SDS011;10838;52.350;9.790;2024-01-27T10:15:58;19.97;;;5.47;;
9372;SDS011;10838;52.350;9.790;2024-01-27T10:18:25;23.20;;;5.23;;
9372;SDS011;10838;52.350;9.790;2024-01-27T10:20:52;20.17;;;5.53;;
9372;SDS011;10838;52.350;9.790;2024-01-27T10:23:19;16.57;;;5.57;;
9372;SDS011;10838;52.350;9.790;2024-01-27T10:25:47;22.93;;;5.27;;
9372;SDS011;10838;52.350;9.790;2024-01-27T10:28:13;18.07;;;5.20;;
9372;SDS011;10838;52.350;9.790;2024-01-27T10:30:40;16.93;;;4.90;;
9372;SDS011;10838;52.350;9.790;2024-01-27T10:33:07;15.73;;;4.67;;
9372;SDS011;10838;52.350;9.790;2024-01-27T10:35:35;18.10;;;5.67;;
9372;SDS011;10838;52.350;9.790;2024-01-27T10:38:01;13.70;;;4.53;;
9372;SDS011;10838;52.350;9.790;2024-01-27T10:40:28;16.00;;;4.60;;
9372;SDS011;10838;52.350;9.790;2024-01-27T10:43:00;19.80;;;4.67;;
9372;SDS011;10838;52.350;9.790;2024-01-27T10:45:29;18.87;;;5.37;;
9372;SDS011;10838;52.350;9.790;2024-01-27T10:48:02;14.03;;;4.80;;
9372;SDS011;10838;52.350;9.790;2024-01-27T10:50:29;17.20;;;4.97;;
9372;SDS011;10838;52.350;9.790;2024-01-27T10:52:57;24.10;;;5.00;;
9372;SDS011;10838;52.350;9.790;2024-01-27T10:55:24;20.13;;;5.17;;
9372;SDS011;10838;52.350;9.790;2024-01-27T10:57:52;21.37;;;4.83;;
9372;SDS011;10838;52.350;9.790;2024-01-27T11:00:22;21.73;;;5.27;;
9372;SDS011;10838;52.350;9.790;2024-01-27T11:02:50;15.90;;;4.93;;
9372;SDS011;10838;52.350;9.790;2024-01-27T11:05:20;18.60;;;4.73;;
9372;SDS011;10838;52.350;9.790;2024-01-27T11:07:50;19.37;;;4.90;;
9372;SDS011;10838;52.350;9.790;2024-01-27T11:10:17;16.03;;;4.53;;
9372;SDS011;10838;52.350;9.790;2024-01-27T11:12:44;16.73;;;4.90;;
9372;SDS011;10838;52.350;9.790;2024-01-27T11:15:12;21.57;;;4.77;;
9372;SDS011;10838;52.350;9.790;2024-01-27T11:17:40;19.47;;;5.50;;
9372;SDS011;10838;52.350;9.790;2024-01-27T11:20:08;11.33;;;4.07;;
9372;SDS011;10838;52.350;9.790;2024-01-27T11:22:36;19.23;;;7.03;;
9372;SDS011;10838;52.350;9.790;2024-01-27T11:25:08;13.73;;;4.30;;
9372;SDS011;10838;52.350;9.790;2024-01-27T11:27:41;14.20;;;4.50;;
9372;SDS011;10838;52.350;9.790;2024-01-27T11:30:23;20.87;;;4.80;;
9372;SDS011;10838;52.350;9.790;2024-01-27T11:32:53;11.80;;;4.37;;
9372;SDS011;10838;52.350;9.790;2024-01-27T11:35:20;15.60;;;3.93;;
9372;SDS011;10838;52.350;9.790;2024-01-27T11:37:47;12.50;;;4.20;;
9372;SDS011;10838;52.350;9.790;2024-01-27T11:40:14;15.33;;;4.77;;
9372;SDS011;10838;52.350;9.790;2024-01-27T11:42:40;23.80;;;4.37;;
9372;SDS011;10838;52.350;9.790;2024-01-27T11:45:07;13.67;;;4.40;;
9372;SDS011;10838;52.350;9.790;2024-01-27T11:47:34;11.93;;;4.13;;
9372;SDS011;10838;52.350;9.790;2024-01-27T11:50:03;14.10;;;4.60;;
9372;SDS011;10838;52.350;9.790;2024-01-27T11:52:29;15.63;;;4.63;;
9372;SDS011;10838;52.350;9.790;2024-01-27T11:54:56;13.80;;;4.23;;
9372;SDS011;10838;52.350;9.790;2024-01-27T11:57:24;12.97;;;3.93;;
9372;SDS011;10838;52.350;9.790;2024-01-27T11:59:51;18.73;;;5.10;;
9372;SDS011;10838;52.350;9.790;2024-01-27T12:02:17;13.27;;;4.67;;
9372;SDS011;10838;52.350;9.790;2024-01-27T12:04:44;16.60;;;4.67;;
9372;SDS011;10838;52.350;9.790;2024-01-27T12:07:12;15.50;;;4.90;;
9372;SDS011;10838;52.350;9.790;2024-01-27T12:09:39;18.47;;;4.80;;
9372;SDS011;10838;52.350;9.790;2024-01-27T12:12:06;15.97;;;4.40;;
9372;SDS011;10838;52.350;9.790;2024-01-27T12:14:38;15.00;;;4.73;;
9372;SDS011;10838;52.350;9.790;2024-01-27T12:17:07;15.87;;;4.30;;
9372;SDS011;10838;52.350;9.790;2024-01-27T12:19:35;17.53;;;4.50;;
9372;SDS011;10838;52.350;9.790;2024-01-27T12:22:01;12.10;;;4.30;;
9372;SDS011;10838;52.350;9.790;2024-01-27T12:24:29;13.43;;;3.77;;
9372;SDS011;10838;52.350;9.790;2024-01-27T12:26:57;13.20;;;3.93;;
9372;SDS011;10838;52.350;9.790;2024-01-27T12:29:25;19.67;;;4.47;;
9372;SDS011;10838;52.350;9.790;2024-01-27T12:31:52;13.47;;;3.80;;
9372;SDS011;10838;52.350;9.790;2024-01-27T12:34:19;14.40;;;4.83;;
9372;SDS011;10838;52.350;9.790;2024-01-27T12:36:46;13.17;;;3.27;;
9372;SDS011;10838;52.350;9.790;2024-01-27T12:39:13;13.07;;;3.83;;
9372;SDS011;10838;52.350;9.790;2024-01-27T12:41:40;12.70;;;3.87;;
9372;SDS011;10838;52.350;9.790;2024-01-27T12:44:07;11.97;;;3.90;;
9372;SDS011;10838;52.350;9.790;2024-01-27T12:46:33;10.03;;;3.30;;
9372;SDS011;10838;52.350;9.790;2024-01-27T12:49:00;11.93;;;3.43;;
9372;SDS011;10838;52.350;9.790;2024-01-27T12:51:28;13.80;;;3.93;;
9372;SDS011;10838;52.350;9.790;2024-01-27T12:53:54;10.47;;;3.70;;
9372;SDS011;10838;52.350;9.790;2024-01-27T12:56:21;12.37;;;3.37;;
9372;SDS011;10838;52.350;9.790;2024-01-27T12:58:49;13.80;;;3.30;;
9372;SDS011;10838;52.350;9.790;2024-01-27T13:01:16;15.70;;;3.43;;
9372;SDS011;10838;52.350;9.790;2024-01-27T13:03:42;12.07;;;2.90;;
9372;SDS011;10838;52.350;9.790;2024-01-27T13:06:09;13.17;;;3.43;;
9372;SDS011;10838;52.350;9.790;2024-01-27T13:08:35;13.30;;;3.63;;
9372;SDS011;10838;52.350;9.790;2024-01-27T13:11:02;12.30;;;3.57;;
9372;SDS011;10838;52.350;9.790;2024-01-27T13:13:29;13.77;;;3.70;;
9372;SDS011;10838;52.350;9.790;2024-01-27T13:15:57;9.47;;;3.50;;
9372;SDS011;10838;52.350;9.790;2024-01-27T13:18:23;15.00;;;4.13;;
9372;SDS011;10838;52.350;9.790;2024-01-27T13:20:50;15.50;;;4.03;;
9372;SDS011;10838;52.350;9.790;2024-01-27T13:23:16;12.83;;;3.43;;
9372;SDS011;10838;52.350;9.790;2024-01-27T13:25:43;12.60;;;4.23;;
9372;SDS011;10838;52.350;9.790;2024-01-27T13:28:09;11.97;;;3.63;;
9372;SDS011;10838;52.350;9.790;2024-01-27T13:30:37;15.80;;;4.03;;
9372;SDS011;10838;52.350;9.790;2024-01-27T13:33:05;12.70;;;3.20;;
9372;SDS011;10838;52.350;9.790;2024-01-27T13:35:32;20.57;;;4.57;;
9372;SDS011;10838;52.350;9.790;2024-01-27T13:37:58;11.43;;;3.60;;
9372;SDS011;10838;52.350;9.790;2024-01-27T13:40:25;20.40;;;3.33;;
9372;SDS011;10838;52.350;9.790;2024-01-27T13:42:52;13.87;;;3.50;;
9372;SDS011;10838;52.350;9.790;2024-01-27T13:45:19;7.63;;;3.40;;
9372;SDS011;10838;52.350;9.790;2024-01-27T13:47:45;15.73;;;3.80;;
9372;SDS011;10838;52.350;9.790;2024-01-27T13:50:13;13.27;;;3.63;;
9372;SDS011;10838;52.350;9.790;2024-01-27T13:52:40;14.37;;;3.37;;
9372;SDS011;10838;52.350;9.790;2024-01-27T13:55:09;17.23;;;3.43;;
9372;SDS011;10838;52.350;9.790;2024-01-27T13:57:36;8.53;;;3.40;;
9372;SDS011;10838;52.350;9.790;2024-01-27T14:00:03;12.93;;;3.63;;
9372;SDS011;10838;52.350;9.790;2024-01-27T14:02:31;14.83;;;3.50;;
9372;SDS011;10838;52.350;9.790;2024-01-27T14:04:57;14.10;;;3.87;;
9372;SDS011;10838;52.350;9.790;2024-01-27T14:07:25;18.37;;;4.23;;
9372;SDS011;10838;52.350;9.790;2024-01-27T14:09:52;12.43;;;3.47;;
9372;SDS011;10838;52.350;9.790;2024-01-27T14:12:19;16.97;;;3.37;;
9372;SDS011;10838;52.350;9.790;2024-01-27T14:14:45;16.17;;;3.90;;
9372;SDS011;10838;52.350;9.790;2024-01-27T14:17:12;11.57;;;3.10;;
9372;SDS011;10838;52.350;9.790;2024-01-27T14:19:39;10.53;;;3.57;;
9372;SDS011;10838;52.350;9.790;2024-01-27T14:22:06;14.20;;;3.73;;
9372;SDS011;10838;52.350;9.790;2024-01-27T14:24:34;12.60;;;3.60;;
9372;SDS011;10838;52.350;9.790;2024-01-27T14:27:01;16.27;;;3.43;;
9372;SDS011;10838;52.350;9.790;2024-01-27T14:29:30;12.40;;;3.03;;
9372;SDS011;10838;52.350;9.790;2024-01-27T14:31:57;11.30;;;2.90;;
9372;SDS011;10838;52.350;9.790;2024-01-27T14:34:23;17.07;;;3.83;;
9372;SDS011;10838;52.350;9.790;2024-01-27T14:36:50;16.70;;;4.67;;
9372;SDS011;10838;52.350;9.790;2024-01-27T14:39:17;12.93;;;3.57;;
9372;SDS011;10838;52.350;9.790;2024-01-27T14:41:46;16.97;;;3.70;;
9372;SDS011;10838;52.350;9.790;2024-01-27T14:44:13;15.63;;;3.47;;
9372;SDS011;10838;52.350;9.790;2024-01-27T14:46:39;8.27;;;2.77;;